Thunderstorms From: 26-05-2018 09:00 Until: 27-05-2018 05:00 warning for: Thunderstorms Level: Yellow info button

Although rather usual in this region, locally or potentially dangerous phenomena are expected. (such as local winds, summer thunderstorms, rising streams or high waves) Be aware and pay attention to the latest weather updates, especially if you carry out activities exposed to weather or close to a stream or shoreline. 


Meteo18 Weather Cam more information Meteo18 Weather Cam


warning for Thunderstorms more information blitzortung!


Rain radar more information rain snow radar


Visit our other weather sites:

Template documentation
and downloads

And another site



Weather Underground History page Text

Daily Summary for May 31, 2017 Units:  English    Metric   Both
« Previous Day
Next Day »
Daily Weekly Monthly Yearly Custom
  High: Low: Average:
Temperature: TemperatureC °F 14.4 °F 18.6 °F
Dew Point: DewpointC °F 12.4 °F 14.6 °F
Humidity: Humidity % 61 % 77 %
Wind Speed: WindSpeedKMH mph 0.0 mph 4.8 mph
Wind Gust: WindSpeedGustKMH mph - -
Wind:- - ESE
Pressure: PressurehPa in 1020.5 in -
Precipitation: 0.5 in    
Historical Graphs
 
 
Tabular Data for May 31, 2017
Time Temperature Dew Point Pressure Wind Wind Speed Wind Gust Humidity Rainfall Rate (Hourly)
TemperatureC °F DewpointC °F PressurehPa in Calm     Humidity % HourlyPrecipMM in
00:02 17.4 °F 13.9 °F 1021.6 in North 1.6 mph 4.8 mph 80 % 0.0 in
00:12 17.3 °F 13.8 °F 1021.6 in NW 1.6 mph 4.8 mph 80 % 0.0 in
00:17 17.3 °F 13.8 °F 1021.6 in NW 1.6 mph 4.8 mph 80 % 0.0 in
00:22 17.3 °F 13.8 °F 1021.6 in North 3.2 mph 4.8 mph 80 % 0.0 in
00:32 17.1 °F 13.6 °F 1021.6 in North 1.6 mph 6.4 mph 80 % 0.0 in
00:42 17.0 °F 13.5 °F 1021.6 in North 3.2 mph 6.4 mph 80 % 0.0 in
00:52 16.9 °F 13.4 °F 1021.6 in NNW 1.6 mph 6.4 mph 80 % 0.0 in
00:57 16.9 °F 13.4 °F 1021.6 in NNE 4.8 mph 6.4 mph 80 % 0.0 in
01:02 16.9 °F 13.4 °F 1021.6 in North 1.6 mph 6.4 mph 80 % 0.0 in
01:07 16.8 °F 13.3 °F 1021.6 in Calm   6.4 mph 80 % 0.0 in
01:12 16.8 °F 13.3 °F 1021.6 in NNW 6.4 mph 6.4 mph 80 % 0.0 in
01:17 16.7 °F 13.2 °F 1021.6 in NNE 6.4 mph 8.0 mph 80 % 0.0 in
01:22 16.7 °F 13.2 °F 1021.6 in North 9.7 mph 9.7 mph 80 % 0.0 in
01:32 16.6 °F 13.1 °F 1021.6 in NW 1.6 mph 9.7 mph 80 % 0.0 in
01:42 16.4 °F 13.1 °F 1021.6 in NNW 1.6 mph 9.7 mph 81 % 0.0 in
01:47 16.4 °F 13.1 °F 1021.6 in NNE 3.2 mph 6.4 mph 81 % 0.0 in
01:52 16.4 °F 13.1 °F 1021.6 in Calm   8.0 mph 81 % 0.0 in
01:57 16.4 °F 13.1 °F 1021.6 in North 1.6 mph 11.3 mph 81 % 0.0 in
02:02 16.5 °F 13.2 °F 1021.6 in Calm   11.3 mph 81 % 0.0 in
02:07 16.6 °F 13.3 °F 1021.6 in NW 1.6 mph 8.0 mph 81 % 0.0 in
02:12 16.6 °F 13.3 °F 1021.6 in NNW 1.6 mph 8.0 mph 81 % 0.0 in
02:22 16.6 °F 13.3 °F 1021.6 in North 3.2 mph 4.8 mph 81 % 0.0 in
02:27 16.6 °F 13.3 °F 1021.6 in North 3.2 mph 6.4 mph 81 % 0.0 in
02:32 16.6 °F 13.3 °F 1021.6 in NNW 1.6 mph 6.4 mph 81 % 0.0 in
02:42 16.5 °F 13.2 °F 1021.9 in NNE 6.4 mph 8.0 mph 81 % 0.0 in
02:47 16.4 °F 13.3 °F 1021.9 in NNE 4.8 mph 12.9 mph 82 % 0.0 in
02:52 16.4 °F 13.3 °F 1021.9 in Calm   12.9 mph 82 % 0.0 in
02:57 16.3 °F 13.4 °F 1021.9 in ENE 1.6 mph 9.7 mph 83 % 0.0 in
03:02 16.3 °F 13.4 °F 1021.9 in NE 3.2 mph 11.3 mph 83 % 0.0 in
03:12 16.2 °F 13.3 °F 1021.9 in North 3.2 mph 14.5 mph 83 % 0.0 in
03:17 16.2 °F 13.5 °F 1021.9 in North 4.8 mph 14.5 mph 84 % 0.0 in
03:22 16.0 °F 13.3 °F 1021.9 in NE 1.6 mph 14.5 mph 84 % 0.0 in
03:27 15.9 °F 13.4 °F 1021.9 in North 3.2 mph 12.9 mph 85 % 0.0 in
03:32 15.8 °F 13.3 °F 1021.9 in NE 3.2 mph 9.7 mph 85 % 0.0 in
03:42 15.7 °F 13.4 °F 1022.2 in North 6.4 mph 9.7 mph 86 % 0.0 in
03:47 15.6 °F 13.3 °F 1022.2 in North 8.0 mph 12.9 mph 86 % 0.0 in
03:52 15.6 °F 13.3 °F 1022.2 in NNW 1.6 mph 12.9 mph 86 % 0.0 in
03:57 15.6 °F 13.3 °F 1022.2 in NNW 4.8 mph 14.5 mph 86 % 0.0 in
04:02 15.5 °F 13.2 °F 1022.2 in North 6.4 mph 14.5 mph 86 % 0.0 in
04:12 15.5 °F 13.2 °F 1022.2 in NW 4.8 mph 14.5 mph 86 % 0.0 in
04:17 15.5 °F 13.2 °F 1022.2 in NNW 1.6 mph 12.9 mph 86 % 0.0 in
04:22 15.5 °F 13.2 °F 1022.2 in NNE 1.6 mph 9.7 mph 86 % 0.0 in
04:32 15.4 °F 13.2 °F 1022.2 in NNW 1.6 mph 8.0 mph 87 % 0.0 in
04:42 15.4 °F 13.1 °F 1022.2 in NNE 3.2 mph 9.7 mph 86 % 0.0 in
04:47 15.3 °F 13.1 °F 1022.2 in NNE 3.2 mph 11.3 mph 87 % 0.0 in
04:52 15.3 °F 13.1 °F 1022.2 in NNW 3.2 mph 11.3 mph 87 % 0.0 in
04:57 15.2 °F 13.0 °F 1022.2 in NE 4.8 mph 11.3 mph 87 % 0.0 in
05:12 15.0 °F 12.9 °F 1022.2 in North 3.2 mph 9.7 mph 87 % 0.0 in
05:17 14.8 °F 12.7 °F 1022.2 in NE 6.4 mph 9.7 mph 87 % 0.0 in
05:22 14.8 °F 12.8 °F 1022.2 in NE 6.4 mph 11.3 mph 88 % 0.0 in
05:32 14.7 °F 12.6 °F 1022.2 in NNW 4.8 mph 12.9 mph 87 % 0.0 in
05:42 14.7 °F 12.6 °F 1022.2 in North 4.8 mph 12.9 mph 87 % 0.0 in
05:47 14.6 °F 12.5 °F 1022.2 in NE 4.8 mph 12.9 mph 87 % 0.0 in
05:52 14.6 °F 12.5 °F 1022.2 in North 6.4 mph 12.9 mph 87 % 0.0 in
05:57 14.6 °F 12.5 °F 1022.2 in NNE 3.2 mph 12.9 mph 87 % 0.0 in
06:02 14.6 °F 12.5 °F 1022.2 in East 4.8 mph 14.5 mph 87 % 0.0 in
06:07 14.6 °F 12.5 °F 1022.2 in NNE 8.0 mph 14.5 mph 87 % 0.0 in
06:17 14.5 °F 12.5 °F 1022.2 in NE 4.8 mph 11.3 mph 88 % 0.0 in
06:22 14.4 °F 12.4 °F 1022.2 in NNW 4.8 mph 11.3 mph 88 % 0.0 in
06:32 14.5 °F 12.5 °F 1022.2 in North 6.4 mph 12.9 mph 88 % 0.0 in
06:37 14.6 °F 12.6 °F 1022.2 in NE 8.0 mph 12.9 mph 88 % 0.0 in
06:42 14.7 °F 12.6 °F 1022.2 in Calm   14.5 mph 87 % 0.0 in
06:47 14.8 °F 12.7 °F 1022.2 in NE 8.0 mph 14.5 mph 87 % 0.0 in
06:57 14.9 °F 12.6 °F 1022.2 in North 6.4 mph 14.5 mph 86 % 0.0 in
07:02 15.0 °F 12.7 °F 1022.2 in North 4.8 mph 14.5 mph 86 % 0.0 in
07:12 15.0 °F 12.7 °F 1022.6 in North 3.2 mph 17.7 mph 86 % 0.0 in
07:22 14.9 °F 12.6 °F 1022.6 in North 9.7 mph 14.5 mph 86 % 0.0 in
07:32 15.1 °F 12.8 °F 1022.6 in NNW 4.8 mph 16.1 mph 86 % 0.0 in
07:37 15.2 °F 12.9 °F 1022.6 in NNE 6.4 mph 16.1 mph 86 % 0.0 in
07:42 15.4 °F 13.1 °F 1022.6 in NE 16.1 mph 16.1 mph 86 % 0.0 in
07:52 15.8 °F 13.1 °F 1022.6 in NNE 8.0 mph 17.7 mph 84 % 0.0 in
07:57 16.0 °F 13.3 °F 1022.6 in NNE 9.7 mph 17.7 mph 84 % 0.0 in
08:02 16.2 °F 13.3 °F 1022.9 in ENE 3.2 mph 14.5 mph 83 % 0.0 in
08:12 16.6 °F 13.3 °F 1022.9 in ENE 3.2 mph 14.5 mph 81 % 0.0 in
08:17 16.7 °F 13.2 °F 1022.9 in NNE 9.7 mph 14.5 mph 80 % 0.0 in
08:22 16.8 °F 13.3 °F 1022.9 in North 4.8 mph 16.1 mph 80 % 0.0 in
08:32 17.1 °F 13.4 °F 1022.9 in North 9.7 mph 17.7 mph 79 % 0.0 in
08:42 17.3 °F 13.6 °F 1022.9 in NNE 12.9 mph 17.7 mph 79 % 0.0 in
08:52 17.3 °F 13.4 °F 1022.9 in NE 6.4 mph 17.7 mph 78 % 0.0 in
09:02 17.3 °F 13.6 °F 1022.9 in ENE 3.2 mph 17.7 mph 79 % 0.0 in
09:12 17.5 °F 13.8 °F 1022.9 in NNW 3.2 mph 16.1 mph 79 % 0.0 in
09:17 17.8 °F 13.9 °F 1022.9 in ENE 8.0 mph 16.1 mph 78 % 0.0 in
09:22 17.9 °F 14.0 °F 1022.9 in NE 11.3 mph 16.1 mph 78 % 0.0 in
09:32 17.6 °F 13.7 °F 1022.9 in NNE 9.7 mph 19.3 mph 78 % 0.0 in
09:42 18.1 °F 14.4 °F 1022.9 in NNE 9.7 mph 19.3 mph 79 % 0.0 in
09:47 18.2 °F 14.1 °F 1022.9 in NE 8.0 mph 19.3 mph 77 % 0.0 in
09:52 18.4 °F 13.9 °F 1022.9 in NE 12.9 mph 16.1 mph 75 % 0.0 in
10:02 18.6 °F 14.5 °F 1022.9 in NNE 12.9 mph 20.9 mph 77 % 0.0 in
10:07 18.8 °F 14.7 °F 1022.9 in NE 3.2 mph 20.9 mph 77 % 0.0 in
10:12 18.9 °F 14.6 °F 1022.9 in NW 9.7 mph 14.5 mph 76 % 0.0 in
10:17 19.1 °F 14.6 °F 1022.9 in NE 4.8 mph 14.5 mph 75 % 0.0 in
10:22 19.1 °F 14.6 °F 1022.9 in NE 11.3 mph 17.7 mph 75 % 0.0 in
10:32 19.4 °F 14.4 °F 1022.9 in NE 9.7 mph 17.7 mph 73 % 0.0 in
10:37 19.6 °F 14.8 °F 1022.9 in NNE 12.9 mph 17.7 mph 74 % 0.0 in
10:42 19.5 °F 14.5 °F 1022.6 in ENE 9.7 mph 20.9 mph 73 % 0.0 in
10:52 19.7 °F 14.5 °F 1022.9 in NNE 4.8 mph 20.9 mph 72 % 0.0 in
11:02 19.9 °F 14.7 °F 1022.9 in NNE 19.3 mph 19.3 mph 72 % 0.0 in
11:12 20.2 °F 15.0 °F 1022.9 in NE 6.4 mph 24.1 mph 72 % 0.0 in
11:22 20.1 °F 14.9 °F 1022.9 in ENE 8.0 mph 19.3 mph 72 % 0.0 in
11:32 20.2 °F 15.0 °F 1022.6 in NNE 16.1 mph 19.3 mph 72 % 0.0 in
11:37 20.3 °F 15.5 °F 1022.9 in NW 3.2 mph 19.3 mph 74 % 0.0 in
11:42 20.4 °F 15.2 °F 1022.9 in NE 11.3 mph 19.3 mph 72 % 0.0 in
11:52 20.7 °F 15.9 °F 1022.9 in East 3.2 mph 19.3 mph 74 % 0.0 in
12:02 21.0 °F 15.5 °F 1022.9 in NE 14.5 mph 17.7 mph 71 % 0.0 in
12:12 21.0 °F 15.5 °F 1022.9 in NE 6.4 mph 19.3 mph 71 % 0.0 in
12:17 21.2 °F 15.7 °F 1022.9 in NNW 6.4 mph 19.3 mph 71 % 0.0 in
12:22 21.2 °F 15.5 °F 1022.9 in NE 8.0 mph 19.3 mph 70 % 0.0 in
12:32 21.7 °F 15.8 °F 1022.9 in NNE 11.3 mph 16.1 mph 69 % 0.0 in
12:37 21.7 °F 16.2 °F 1022.9 in NNE 11.3 mph 16.1 mph 71 % 0.0 in
12:42 21.8 °F 16.1 °F 1022.9 in NNE 6.4 mph 17.7 mph 70 % 0.0 in
12:47 21.8 °F 15.6 °F 1022.9 in NE 8.0 mph 17.7 mph 68 % 0.0 in
12:52 21.4 °F 15.7 °F 1022.9 in NNE 9.7 mph 17.7 mph 70 % 0.0 in
13:02 21.7 °F 15.8 °F 1022.6 in North 3.2 mph 19.3 mph 69 % 0.0 in
13:12 21.6 °F 15.4 °F 1022.6 in NNE 11.3 mph 17.7 mph 68 % 0.0 in
13:22 21.7 °F 15.5 °F 1022.2 in NNE 3.2 mph 17.7 mph 68 % 0.0 in
13:32 21.9 °F 15.0 °F 1022.2 in NE 4.8 mph 17.7 mph 65 % 0.0 in
13:37 22.1 °F 15.7 °F 1022.2 in NE 9.7 mph 17.7 mph 67 % 0.0 in
13:42 22.3 °F 15.9 °F 1022.2 in NW 1.6 mph 17.7 mph 67 % 0.0 in
13:52 22.1 °F 15.4 °F 1022.2 in NE 6.4 mph 14.5 mph 66 % 0.0 in
14:02 22.4 °F 15.5 °F 1022.2 in North 12.9 mph 20.9 mph 65 % 0.0 in
14:12 22.7 °F 15.5 °F 1022.2 in NNE 8.0 mph 20.9 mph 64 % 0.0 in
14:22 22.4 °F 14.5 °F 1022.2 in NE 1.6 mph 16.1 mph 61 % 0.0 in
14:32 22.6 °F 15.7 °F 1022.2 in ENE 9.7 mph 14.5 mph 65 % 0.0 in
14:37 22.6 °F 15.2 °F 1022.2 in ENE 11.3 mph 14.5 mph 63 % 0.0 in
14:42 22.4 °F 15.5 °F 1022.2 in NE 8.0 mph 14.5 mph 65 % 0.0 in
14:47 22.2 °F 15.5 °F 1022.2 in NNE 12.9 mph 14.5 mph 66 % 0.0 in
14:57 22.4 °F 15.5 °F 1022.2 in NE 3.2 mph 12.9 mph 65 % 0.0 in
15:02 22.3 °F 15.6 °F 1022.2 in NNE 3.2 mph 12.9 mph 66 % 0.0 in
15:07 22.3 °F 15.6 °F 1021.9 in NNE 1.6 mph 14.5 mph 66 % 0.0 in
15:12 22.4 °F 16.0 °F 1021.9 in NE 6.4 mph 14.5 mph 67 % 0.0 in
15:17 22.6 °F 15.7 °F 1021.9 in NNE 11.3 mph 14.5 mph 65 % 0.0 in
15:22 22.4 °F 15.5 °F 1021.9 in North 8.0 mph 16.1 mph 65 % 0.0 in
15:27 22.3 °F 15.6 °F 1021.9 in NE 8.0 mph 16.1 mph 66 % 0.0 in
15:37 22.2 °F 15.8 °F 1021.9 in NE 6.4 mph 17.7 mph 67 % 0.0 in
15:42 22.2 °F 15.3 °F 1021.9 in NE 14.5 mph 17.7 mph 65 % 0.0 in
15:47 22.2 °F 15.1 °F 1021.6 in NE 8.0 mph 17.7 mph 64 % 0.0 in
15:52 22.4 °F 15.0 °F 1021.6 in ENE 4.8 mph 17.7 mph 63 % 0.0 in
15:57 22.4 °F 15.5 °F 1021.6 in ENE 4.8 mph 17.7 mph 65 % 0.0 in
16:02 22.6 °F 15.7 °F 1021.6 in ESE 4.8 mph 14.5 mph 65 % 0.0 in
16:12 22.7 °F 16.0 °F 1021.6 in North 3.2 mph 12.9 mph 66 % 0.0 in
16:22 22.9 °F 16.0 °F 1021.6 in North 4.8 mph 14.5 mph 65 % 0.0 in
16:27 23.0 °F 15.6 °F 1021.6 in NE 8.0 mph 14.5 mph 63 % 0.0 in
16:32 22.9 °F 16.0 °F 1021.6 in NNE 6.4 mph 14.5 mph 65 % 0.0 in
16:37 22.9 °F 15.7 °F 1021.6 in NNE 6.4 mph 16.1 mph 64 % 0.0 in
16:42 23.1 °F 15.7 °F 1021.6 in Calm   16.1 mph 63 % 0.0 in
16:52 23.1 °F 15.4 °F 1021.2 in NNE 11.3 mph 16.1 mph 62 % 0.0 in
16:57 23.0 °F 15.8 °F 1021.2 in ENE 8.0 mph 14.5 mph 64 % 0.0 in
17:02 22.7 °F 15.5 °F 1021.2 in North 3.2 mph 12.9 mph 64 % 0.0 in
17:12 22.4 °F 15.7 °F 1021.2 in NNE 6.4 mph 12.9 mph 66 % 0.0 in
17:17 22.3 °F 15.6 °F 1021.2 in NE 6.4 mph 14.5 mph 66 % 0.0 in
17:22 22.3 °F 15.4 °F 1021.6 in NNE 1.6 mph 14.5 mph 65 % 0.0 in
17:32 22.3 °F 15.6 °F 1021.2 in ENE 3.2 mph 9.7 mph 66 % 0.0 in
17:37 22.2 °F 15.8 °F 1021.2 in NE 6.4 mph 9.7 mph 67 % 0.0 in
17:42 22.0 °F 15.8 °F 1021.2 in NE 4.8 mph 9.7 mph 68 % 0.0 in
17:47 21.9 °F 15.7 °F 1021.2 in ENE 8.0 mph 9.7 mph 68 % 0.0 in
17:52 21.7 °F 15.8 °F 1021.2 in NNE 6.4 mph 11.3 mph 69 % 0.0 in
17:57 21.6 °F 15.7 °F 1021.2 in NE 4.8 mph 12.9 mph 69 % 0.0 in
18:02 21.6 °F 15.4 °F 1020.9 in NE 3.2 mph 12.9 mph 68 % 0.0 in
18:07 21.4 °F 15.5 °F 1020.9 in NNE 8.0 mph 12.9 mph 69 % 0.0 in
18:17 20.9 °F 15.9 °F 1020.9 in NNE 9.7 mph 12.9 mph 73 % 0.0 in
18:27 20.5 °F 15.9 °F 1020.9 in NE 6.4 mph 14.5 mph 75 % 0.0 in
18:32 20.4 °F 16.2 °F 1020.9 in NE 6.4 mph 14.5 mph 77 % 0.0 in
18:42 20.2 °F 16.4 °F 1020.9 in North 3.2 mph 12.9 mph 79 % 0.3 in
18:52 20.1 °F 16.7 °F 1020.9 in Calm   9.7 mph 81 % 0.3 in
19:02 19.9 °F 16.7 °F 1020.9 in NNE 3.2 mph 8.0 mph 82 % 0.5 in
19:12 19.9 °F 16.7 °F 1020.5 in North 1.6 mph 6.4 mph 82 % 0.5 in
19:17 19.8 °F 16.6 °F 1020.9 in NE 4.8 mph 6.4 mph 82 % 0.5 in
19:22 19.8 °F 16.8 °F 1020.9 in NNE 3.2 mph 4.8 mph 83 % 0.5 in
19:32 19.7 °F 16.9 °F 1020.9 in NNE 1.6 mph 6.4 mph 84 % 0.5 in
19:37 19.7 °F 16.7 °F 1020.9 in NNE 4.8 mph 6.4 mph 83 % 0.3 in
19:42 19.7 °F 16.9 °F 1020.9 in NE 1.6 mph 6.4 mph 84 % 0.3 in
19:52 19.6 °F 16.8 °F 1020.9 in Calm   6.4 mph 84 % 0.0 in
19:57 19.6 °F 16.6 °F 1020.9 in NNE 1.6 mph 4.8 mph 83 % 0.0 in
20:02 19.7 °F 16.7 °F 1020.9 in North 1.6 mph 4.8 mph 83 % 0.0 in
20:12 19.7 °F 16.7 °F 1020.9 in Calm   4.8 mph 83 % 0.0 in
20:17 19.8 °F 16.8 °F 1020.9 in North 1.6 mph 4.8 mph 83 % 0.0 in
20:22 19.8 °F 16.8 °F 1020.9 in Calm   4.8 mph 83 % 0.0 in
20:32 19.8 °F 16.8 °F 1020.9 in North 3.2 mph 3.2 mph 83 % 0.0 in
20:42 19.8 °F 16.6 °F 1021.2 in Calm   3.2 mph 82 % 0.0 in
20:47 19.8 °F 16.6 °F 1020.9 in Calm   4.8 mph 82 % 0.0 in
20:52 19.8 °F 16.6 °F 1021.2 in Calm   4.8 mph 82 % 0.0 in
20:57 19.8 °F 16.4 °F 1021.2 in Calm   1.6 mph 81 % 0.0 in
21:02 19.9 °F 16.5 °F 1021.2 in Calm   1.6 mph 81 % 0.0 in
21:12 20.1 °F 16.7 °F 1021.2 in Calm   1.6 mph 81 % 0.0 in
21:17 19.9 °F 16.3 °F 1021.2 in Calm   1.6 mph 80 % 0.0 in
21:22 19.8 °F 16.2 °F 1021.2 in Calm   1.6 mph 80 % 0.0 in
21:27 19.6 °F 16.2 °F 1021.2 in Calm     81 % 0.0 in
21:32 19.4 °F 16.1 °F 1021.6 in Calm     81 % 0.0 in
21:42 19.2 °F 15.9 °F 1021.6 in Calm     81 % 0.0 in
21:47 19.1 °F 16.0 °F 1021.6 in Calm     82 % 0.0 in
21:57 18.7 °F 15.9 °F 1021.6 in Calm     84 % 0.0 in
22:02 18.4 °F 15.8 °F 1021.6 in Calm     85 % 0.0 in
22:12 18.2 °F 15.6 °F 1021.9 in Calm     85 % 0.0 in
22:22 18.2 °F 15.5 °F 1021.6 in Calm   1.6 mph 84 % 0.0 in
22:32 17.9 °F 15.3 °F 1021.6 in NE 3.2 mph 6.4 mph 85 % 0.0 in
22:42 17.8 °F 15.2 °F 1021.9 in NE 1.6 mph 6.4 mph 85 % 0.0 in
22:52 18.1 °F 15.2 °F 1021.9 in Calm   4.8 mph 83 % 0.0 in
22:57 17.9 °F 15.2 °F 1021.9 in Calm   4.8 mph 84 % 0.0 in
23:02 17.8 °F 15.1 °F 1021.9 in Calm   3.2 mph 84 % 0.0 in
23:12 17.7 °F 15.0 °F 1021.9 in Calm   3.2 mph 84 % 0.0 in
23:17 17.6 °F 14.9 °F 1021.9 in Calm   1.6 mph 84 % 0.0 in
23:22 17.7 °F 15.0 °F 1021.9 in NNE 1.6 mph 1.6 mph 84 % 0.0 in
23:27 17.7 °F 15.0 °F 1021.9 in North 1.6 mph 3.2 mph 84 % 0.0 in
23:32 17.6 °F 14.9 °F 1021.9 in North 1.6 mph 3.2 mph 84 % 0.0 in
23:37 17.4 °F 14.9 °F 1021.9 in North 1.6 mph 3.2 mph 85 % 0.0 in
23:42 17.3 °F 14.8 °F 1021.9 in Calm   3.2 mph 85 % 0.0 in
23:47 17.3 °F 14.8 °F 1021.9 in Calm   4.8 mph 85 % 0.0 in
23:52 17.3 °F 14.8 °F 1021.9 in Calm   4.8 mph 85 % 0.0 in
Meteo18
Compliments of Weather Underground - 4 mb

Script developed by  Jim McMurry - jmcmurry@mwt.net Adapted for the template by  Wim van der Kuil - Leuven-Template.eu

You find our weather info also at:

European Weather Network

Weather Underground

Equipment we use:

Weather-station
Davis Vue

Weather-program
Meteobridge

Weather-server
Raspberry PI 2 B+

Provider
1 and 1

Davis Vue

Meteobridge

Raspberry PI 2 B+

1 and 1